Time;durP1;ratioP1;P1;durP2;ratioP2;P2;SDS_P1;SDS_P2;PMS_P1;PMS_P2;Temp;Humidity;BMP_temperature;BMP_pressure;BME280_temperature;BME280_humidity;BME280_pressure;Samples;Min_cycle;Max_cycle;Signal;HPM_P1;HPM_P2
2021/05/27 00:02:17;;;;;;;10.48;8.70;;;13.50;99.90;;;;;;5052425;28;20021;-82
2021/05/27 00:04:43;;;;;;;11.98;10.02;;;13.50;99.90;;;;;;5051474;28;20111;-77
2021/05/27 00:07:09;;;;;;;11.45;8.27;;;13.50;99.90;;;;;;5051305;28;20273;-81
2021/05/27 00:09:34;;;;;;;10.80;8.05;;;13.40;99.90;;;;;;5054847;28;20017;-80
2021/05/27 00:12:00;;;;;;;14.73;8.57;;;13.40;99.90;;;;;;5049664;28;20393;-80
2021/05/27 00:14:26;;;;;;;11.57;9.02;;;13.50;99.90;;;;;;5053936;28;20017;-75
2021/05/27 00:16:52;;;;;;;14.48;9.25;;;13.50;99.90;;;;;;5055145;28;20036;-77
2021/05/27 00:19:17;;;;;;;14.82;9.60;;;13.50;99.90;;;;;;5062946;28;20036;-74
2021/05/27 00:21:43;;;;;;;12.75;9.73;;;13.50;99.90;;;;;;5064790;28;20097;-76
2021/05/27 00:24:09;;;;;;;15.38;9.70;;;13.50;99.90;;;;;;5051674;28;20373;-81
2021/05/27 00:26:34;;;;;;;14.60;9.45;;;13.50;99.90;;;;;;5055458;28;20028;-80
2021/05/27 00:29:00;;;;;;;17.40;9.80;;;13.50;99.90;;;;;;5057452;28;20541;-77
2021/05/27 00:31:26;;;;;;;16.42;10.63;;;13.40;99.90;;;;;;5056695;28;20035;-82
2021/05/27 00:33:51;;;;;;;14.25;10.00;;;13.50;99.90;;;;;;5058371;28;20086;-83
2021/05/27 00:36:17;;;;;;;15.77;10.10;;;13.50;99.90;;;;;;5063289;28;20021;-85
2021/05/27 00:38:43;;;;;;;14.00;9.55;;;13.40;99.90;;;;;;5053090;28;20032;-77
2021/05/27 00:41:08;;;;;;;12.68;9.43;;;13.40;99.90;;;;;;5058086;28;20021;-83
2021/05/27 00:43:34;;;;;;;15.00;9.88;;;13.40;99.90;;;;;;5055481;28;20032;-80
2021/05/27 00:46:00;;;;;;;14.35;10.30;;;13.40;99.90;;;;;;5064134;28;20021;-78
2021/05/27 00:51:11;;;;;;;17.33;10.60;;;13.50;99.90;;;;;;5063243;28;20120;-78
2021/05/27 00:53:36;;;;;;;16.45;11.13;;;13.50;99.90;;;;;;5068332;28;20462;-82
2021/05/27 00:56:03;;;;;;;18.13;11.20;;;13.60;99.90;;;;;;5066949;28;20024;-83
2021/05/27 00:58:30;;;;;;;22.98;11.75;;;13.50;99.90;;;;;;5064431;28;20017;-79
2021/05/27 01:00:56;;;;;;;21.02;11.55;;;13.40;99.90;;;;;;5064337;28;20021;-78
2021/05/27 01:03:23;;;;;;;13.90;10.95;;;13.40;99.90;;;;;;5062249;28;20078;-79
2021/05/27 01:05:50;;;;;;;18.83;12.07;;;13.40;99.90;;;;;;5060933;28;20539;-78
2021/05/27 01:08:15;;;;;;;16.00;11.68;;;13.40;99.90;;;;;;5066299;28;20076;-84
2021/05/27 01:10:41;;;;;;;16.25;11.10;;;13.40;99.90;;;;;;5064466;28;20131;-83
2021/05/27 01:13:07;;;;;;;16.63;12.00;;;13.50;99.90;;;;;;5056926;28;20100;-82
2021/05/27 01:15:35;;;;;;;18.85;12.10;;;13.50;99.90;;;;;;5061673;28;20424;-79
2021/05/27 01:18:11;;;;;;;19.70;12.45;;;13.50;99.90;;;;;;5064210;28;20063;-76
2021/05/27 01:20:39;;;;;;;18.17;11.43;;;13.50;99.90;;;;;;5064021;28;20067;-83
2021/05/27 01:23:05;;;;;;;18.40;13.10;;;13.50;99.90;;;;;;5067231;28;20035;-77
2021/05/27 01:25:30;;;;;;;18.77;13.05;;;13.40;99.90;;;;;;5059194;28;20705;-79
2021/05/27 01:27:56;;;;;;;18.73;12.27;;;13.30;99.90;;;;;;5056851;28;20545;-82
2021/05/27 01:30:23;;;;;;;19.73;11.85;;;13.40;99.90;;;;;;5058843;28;20389;-79
2021/05/27 01:32:49;;;;;;;19.15;12.43;;;13.20;99.90;;;;;;5055430;28;20039;-79
2021/05/27 01:35:21;;;;;;;17.55;11.70;;;13.20;99.90;;;;;;5059122;28;20466;-78
2021/05/27 01:37:47;;;;;;;20.08;11.02;;;13.20;99.90;;;;;;5063163;28;20074;-76
2021/05/27 01:40:15;;;;;;;19.85;11.90;;;13.30;99.90;;;;;;5054513;28;20375;-79
2021/05/27 01:42:41;;;;;;;15.77;10.98;;;13.20;99.90;;;;;;5063414;28;20017;-81
2021/05/27 01:45:08;;;;;;;18.13;11.23;;;13.10;99.90;;;;;;5060430;28;20029;-78
2021/05/27 01:47:33;;;;;;;21.33;10.55;;;13.10;99.90;;;;;;5060674;28;20013;-80
2021/05/27 01:49:59;;;;;;;20.25;10.52;;;13.20;99.90;;;;;;5069183;28;20032;-82
2021/05/27 01:52:25;;;;;;;24.35;10.77;;;13.20;99.90;;;;;;5065616;28;20033;-80
2021/05/27 01:54:50;;;;;;;21.63;10.73;;;13.20;99.90;;;;;;5057456;28;20499;-75
2021/05/27 01:57:16;;;;;;;18.73;9.57;;;13.10;99.90;;;;;;5060786;28;20054;-79
2021/05/27 01:59:42;;;;;;;20.15;11.68;;;13.20;99.90;;;;;;5062982;28;20147;-83
2021/05/27 02:02:07;;;;;;;22.85;11.38;;;13.20;99.90;;;;;;5059329;28;20104;-75
2021/05/27 02:04:33;;;;;;;17.42;10.10;;;13.20;99.90;;;;;;5062631;28;20024;-81
2021/05/27 02:07:08;;;;;;;14.35;10.27;;;13.20;99.90;;;;;;5063461;28;20392;-83
2021/05/27 02:09:33;;;;;;;13.27;9.73;;;13.20;99.90;;;;;;5060198;28;20029;-82
2021/05/27 02:11:59;;;;;;;18.25;9.75;;;13.20;99.90;;;;;;5062499;28;20120;-82
2021/05/27 02:14:24;;;;;;;20.25;9.20;;;13.10;99.90;;;;;;5063420;28;20140;-83
2021/05/27 02:16:50;;;;;;;17.98;10.10;;;13.10;99.90;;;;;;5064406;28;20066;-83
2021/05/27 02:19:16;;;;;;;23.77;9.98;;;13.20;99.90;;;;;;5064668;28;20496;-77
2021/05/27 02:21:42;;;;;;;17.67;9.65;;;13.10;99.90;;;;;;5061658;28;20036;-82
2021/05/27 02:24:08;;;;;;;24.27;9.85;;;13.20;99.90;;;;;;5064500;28;20056;-80
2021/05/27 02:26:34;;;;;;;15.73;8.77;;;13.20;99.90;;;;;;5062666;28;20082;-82
2021/05/27 02:29:01;;;;;;;20.00;10.20;;;13.10;99.90;;;;;;5056134;28;20025;-82
2021/05/27 02:31:27;;;;;;;16.63;9.48;;;13.10;99.90;;;;;;5070653;28;20036;-81
2021/05/27 02:33:53;;;;;;;15.55;9.68;;;13.10;99.90;;;;;;5061841;28;20028;-83
2021/05/27 02:36:20;;;;;;;17.70;8.90;;;13.10;99.90;;;;;;5062037;28;20044;-80
2021/05/27 02:38:46;;;;;;;21.77;9.32;;;13.10;99.90;;;;;;5067922;28;20106;-82
2021/05/27 02:41:12;;;;;;;18.20;10.18;;;13.20;99.90;;;;;;5061464;28;20021;-82
2021/05/27 02:43:38;;;;;;;19.02;8.98;;;13.20;99.90;;;;;;5063723;28;20391;-81
2021/05/27 02:46:04;;;;;;;18.13;9.50;;;13.20;99.90;;;;;;5061107;28;22050;-82
2021/05/27 02:48:30;;;;;;;19.05;10.25;;;13.20;99.90;;;;;;5066018;28;20203;-80
2021/05/27 02:50:58;;;;;;;16.50;9.25;;;13.20;99.90;;;;;;5072526;28;20554;-83
2021/05/27 02:53:24;;;;;;;19.27;9.70;;;13.20;99.90;;;;;;5063707;28;20382;-82
2021/05/27 02:55:50;;;;;;;17.13;9.80;;;13.10;99.90;;;;;;5059363;28;20024;-83
2021/05/27 02:58:17;;;;;;;18.52;9.68;;;13.20;99.90;;;;;;5059220;28;20059;-83
2021/05/27 03:00:42;;;;;;;16.65;8.85;;;13.20;99.90;;;;;;5063410;28;20021;-80
2021/05/27 03:03:08;;;;;;;19.38;9.07;;;13.20;99.90;;;;;;5063832;28;20037;-83
2021/05/27 03:05:34;;;;;;;14.95;8.95;;;13.20;99.90;;;;;;5066479;28;20021;-82
2021/05/27 03:07:59;;;;;;;18.42;9.13;;;13.20;99.90;;;;;;5064692;28;20481;-80
2021/05/27 03:10:25;;;;;;;18.05;8.70;;;13.20;99.90;;;;;;5074934;28;20111;-81
2021/05/27 03:12:51;;;;;;;19.10;9.95;;;13.30;99.90;;;;;;5056902;28;20025;-81
2021/05/27 03:15:17;;;;;;;19.90;10.30;;;13.30;99.90;;;;;;5065546;28;20024;-82
2021/05/27 03:17:43;;;;;;;20.98;9.85;;;13.20;99.90;;;;;;5067400;28;20513;-84
2021/05/27 03:20:10;;;;;;;17.00;10.13;;;13.10;99.90;;;;;;5071744;28;20025;-82
2021/05/27 03:22:36;;;;;;;19.73;9.95;;;13.10;99.90;;;;;;5056814;28;20108;-82
2021/05/27 03:25:02;;;;;;;22.38;10.52;;;13.10;99.90;;;;;;5056909;28;20530;-82
2021/05/27 03:27:27;;;;;;;21.20;10.45;;;13.20;99.90;;;;;;5063289;28;20527;-78
2021/05/27 03:29:53;;;;;;;22.50;10.27;;;13.20;99.90;;;;;;5057020;28;20025;-81
2021/05/27 03:32:19;;;;;;;24.23;11.93;;;13.20;99.90;;;;;;5065030;28;20516;-83
2021/05/27 03:34:44;;;;;;;23.65;11.25;;;13.10;99.90;;;;;;5060768;28;20534;-81
2021/05/27 03:37:10;;;;;;;17.92;10.90;;;13.20;99.90;;;;;;5060520;28;20543;-81
2021/05/27 03:39:35;;;;;;;20.77;10.70;;;13.20;99.90;;;;;;5059179;28;20473;-82
2021/05/27 03:42:01;;;;;;;17.55;10.75;;;13.20;99.90;;;;;;5065078;28;20047;-82
2021/05/27 03:44:27;;;;;;;24.33;13.23;;;13.10;99.90;;;;;;5064268;28;20111;-81
2021/05/27 03:46:52;;;;;;;22.98;11.18;;;13.10;99.90;;;;;;5054917;28;20061;-82
2021/05/27 03:49:18;;;;;;;23.10;13.20;;;13.10;99.90;;;;;;5059652;28;20460;-80
2021/05/27 03:51:44;;;;;;;27.00;13.13;;;13.10;99.90;;;;;;5062725;28;20045;-82
2021/05/27 03:54:09;;;;;;;20.38;12.43;;;13.20;99.90;;;;;;5063842;28;20056;-82
2021/05/27 03:56:35;;;;;;;20.98;13.30;;;13.20;99.90;;;;;;5056193;28;20443;-82
2021/05/27 04:01:45;;;;;;;21.70;13.73;;;13.10;99.90;;;;;;5059166;28;20044;-81
2021/05/27 04:07:11;;;;;;;21.58;13.60;;;13.20;99.90;;;;;;5064457;28;20063;-81
2021/05/27 04:09:38;;;;;;;32.08;14.85;;;13.20;99.90;;;;;;5061119;28;20024;-80
2021/05/27 04:17:41;;;;;;;28.35;15.15;;;13.30;99.90;;;;;;5065391;28;20052;-82
2021/05/27 04:20:08;;;;;;;25.92;15.38;;;13.40;99.90;;;;;;5066444;28;20021;-82
2021/05/27 04:22:33;;;;;;;22.80;14.95;;;13.30;99.90;;;;;;5068869;28;20128;-82
2021/05/27 04:24:59;;;;;;;28.50;14.95;;;13.40;99.90;;;;;;5059756;28;20541;-82
2021/05/27 04:27:25;;;;;;;32.45;14.82;;;13.20;99.90;;;;;;5067277;28;20389;-78
2021/05/27 04:29:54;;;;;;;26.48;14.27;;;13.30;99.90;;;;;;5067780;28;20025;-79
2021/05/27 04:35:05;;;;;;;24.98;13.73;;;13.20;99.90;;;;;;5066229;28;20028;-83
2021/05/27 04:37:30;;;;;;;29.10;14.45;;;13.30;99.90;;;;;;5059689;28;20036;-78
2021/05/27 04:39:56;;;;;;;28.98;14.38;;;13.30;99.90;;;;;;5068608;28;20892;-82
2021/05/27 04:42:21;;;;;;;28.83;15.35;;;13.10;99.90;;;;;;5063304;28;20056;-82
2021/05/27 04:44:47;;;;;;;27.67;14.02;;;13.10;99.90;;;;;;5059722;28;20103;-79
2021/05/27 04:47:13;;;;;;;30.75;15.13;;;13.10;99.90;;;;;;5063776;28;20032;-78
2021/05/27 04:49:38;;;;;;;28.42;14.75;;;13.10;99.90;;;;;;5064501;28;20036;-82
2021/05/27 04:52:04;;;;;;;34.28;14.82;;;13.20;99.90;;;;;;5063504;28;20040;-81
2021/05/27 04:54:30;;;;;;;31.65;14.65;;;13.10;99.90;;;;;;5066688;28;20040;-79
2021/05/27 04:56:55;;;;;;;30.92;15.13;;;13.20;99.90;;;;;;5068849;28;20454;-78
2021/05/27 04:59:21;;;;;;;28.50;13.05;;;13.20;99.90;;;;;;5063622;28;20048;-82
2021/05/27 05:01:47;;;;;;;26.23;12.68;;;13.20;99.90;;;;;;5067955;28;20106;-78
2021/05/27 05:04:12;;;;;;;32.90;14.20;;;13.20;99.90;;;;;;5058805;28;20028;-81
2021/05/27 05:06:38;;;;;;;30.95;14.18;;;13.20;99.90;;;;;;5066712;28;20065;-82
2021/05/27 05:09:04;;;;;;;27.48;15.02;;;13.30;99.90;;;;;;5070913;28;20036;-76
2021/05/27 05:11:29;;;;;;;32.00;13.45;;;13.30;99.90;;;;;;5062344;28;20055;-78
2021/05/27 05:13:55;;;;;;;29.30;13.10;;;13.30;99.90;;;;;;5063199;28;20039;-82
2021/05/27 05:16:21;;;;;;;29.70;14.18;;;13.30;99.90;;;;;;5072683;28;20469;-81
2021/05/27 05:18:46;;;;;;;26.40;12.48;;;13.30;99.90;;;;;;5066838;28;20024;-82
2021/05/27 05:21:12;;;;;;;32.00;13.85;;;13.20;99.90;;;;;;5061922;28;20033;-81
2021/05/27 05:23:38;;;;;;;34.50;12.80;;;13.30;99.90;;;;;;5070651;28;20024;-81
2021/05/27 05:26:03;;;;;;;24.88;13.40;;;13.30;99.90;;;;;;5060170;28;20044;-82
2021/05/27 05:28:29;;;;;;;18.75;10.65;;;13.30;99.90;;;;;;5066971;28;20033;-80
2021/05/27 05:30:54;;;;;;;16.20;8.57;;;13.10;99.90;;;;;;5066991;28;20041;-82
2021/05/27 05:33:20;;;;;;;16.48;6.88;;;12.90;99.90;;;;;;5068024;28;20076;-76
2021/05/27 05:35:46;;;;;;;14.43;6.95;;;12.80;99.90;;;;;;5061262;28;20074;-80
2021/05/27 05:38:12;;;;;;;16.00;5.80;;;12.70;99.90;;;;;;5064095;28;20029;-81
2021/05/27 05:40:37;;;;;;;11.75;5.40;;;12.70;99.90;;;;;;5059514;28;20062;-82
2021/05/27 05:43:03;;;;;;;14.10;5.38;;;12.60;99.90;;;;;;5062487;28;20427;-83
2021/05/27 05:45:29;;;;;;;10.95;5.13;;;12.70;99.90;;;;;;5064789;28;20538;-81
2021/05/27 05:47:56;;;;;;;15.90;5.65;;;12.70;99.90;;;;;;5072597;28;20107;-77
2021/05/27 05:53:08;;;;;;;10.38;4.88;;;12.80;99.90;;;;;;5069090;28;20528;-81
2021/05/27 05:55:34;;;;;;;11.10;4.97;;;12.80;99.90;;;;;;5068150;28;20032;-81
2021/05/27 05:58:01;;;;;;;16.33;6.05;;;12.80;99.90;;;;;;5065227;28;20040;-81
2021/05/27 06:00:27;;;;;;;16.17;5.05;;;12.80;99.90;;;;;;5074667;28;20393;-81
2021/05/27 06:02:53;;;;;;;11.77;5.00;;;12.70;99.90;;;;;;5063171;28;20036;-82
2021/05/27 06:05:19;;;;;;;12.38;5.40;;;12.70;99.90;;;;;;5062151;28;20465;-79
2021/05/27 06:07:44;;;;;;;11.55;4.68;;;12.80;99.90;;;;;;5062493;28;20038;-81
2021/05/27 06:10:10;;;;;;;12.60;5.40;;;12.80;99.90;;;;;;5061871;28;20035;-78
2021/05/27 06:12:38;;;;;;;14.75;5.93;;;12.80;99.90;;;;;;5056260;28;20040;-81
2021/05/27 06:15:04;;;;;;;10.43;5.32;;;12.80;99.90;;;;;;5068286;28;20036;-78
2021/05/27 06:17:30;;;;;;;11.18;4.85;;;12.80;99.90;;;;;;5074750;28;20085;-82
2021/05/27 06:19:55;;;;;;;12.48;6.03;;;12.80;99.90;;;;;;5058348;28;20033;-82
2021/05/27 06:22:21;;;;;;;14.82;5.45;;;12.80;99.90;;;;;;5062348;28;20034;-80
2021/05/27 06:24:47;;;;;;;11.05;5.25;;;12.70;99.90;;;;;;5063950;28;20021;-77
2021/05/27 06:27:13;;;;;;;13.70;5.32;;;12.80;99.90;;;;;;5066188;28;20024;-77
2021/05/27 06:29:38;;;;;;;11.15;5.13;;;12.70;99.90;;;;;;5060328;28;20049;-80
2021/05/27 06:32:04;;;;;;;12.13;5.00;;;12.60;99.90;;;;;;5058803;28;20037;-79
2021/05/27 06:34:30;;;;;;;9.63;5.43;;;12.70;99.90;;;;;;5060694;28;20025;-84
2021/05/27 06:36:55;;;;;;;12.88;5.50;;;12.80;99.90;;;;;;5055563;28;20548;-81
2021/05/27 06:39:22;;;;;;;13.30;5.78;;;12.80;99.90;;;;;;5062554;28;20029;-83
2021/05/27 06:41:47;;;;;;;15.70;6.22;;;12.80;99.90;;;;;;5067278;28;20021;-81
2021/05/27 06:44:13;;;;;;;14.43;6.13;;;12.70;99.90;;;;;;5060268;28;20086;-81
2021/05/27 06:46:39;;;;;;;16.10;6.20;;;12.80;99.90;;;;;;5062699;28;20035;-83
2021/05/27 06:49:05;;;;;;;16.52;6.72;;;12.80;99.90;;;;;;5060930;28;20076;-78
2021/05/27 06:51:31;;;;;;;16.33;7.18;;;12.70;99.90;;;;;;5065148;28;20170;-81
2021/05/27 06:53:57;;;;;;;17.50;6.78;;;12.70;99.90;;;;;;5052176;28;20020;-75
2021/05/27 06:56:23;;;;;;;13.82;5.70;;;12.70;99.90;;;;;;5066506;28;20028;-78
2021/05/27 06:58:49;;;;;;;16.38;5.93;;;12.80;99.90;;;;;;5055796;28;20431;-82
2021/05/27 07:01:15;;;;;;;15.93;6.57;;;12.80;99.90;;;;;;5053773;28;20096;-80
2021/05/27 07:03:40;;;;;;;17.10;6.40;;;12.80;99.90;;;;;;5057742;28;20033;-75
2021/05/27 07:06:06;;;;;;;13.75;6.65;;;12.90;99.90;;;;;;5056537;28;20488;-76
2021/05/27 07:08:36;;;;;;;16.80;7.05;;;12.90;99.90;;;;;;5057699;28;20032;-75
2021/05/27 07:11:02;;;;;;;19.90;7.30;;;12.90;99.90;;;;;;5056168;28;20054;-83
2021/05/27 07:13:27;;;;;;;16.13;7.50;;;12.90;99.90;;;;;;5056968;28;20044;-80
2021/05/27 07:15:53;;;;;;;15.30;6.90;;;13.00;99.90;;;;;;5056778;28;20108;-85
2021/05/27 07:18:19;;;;;;;20.52;7.45;;;12.90;99.90;;;;;;5053917;28;20031;-74
2021/05/27 07:20:44;;;;;;;22.60;7.90;;;13.00;99.90;;;;;;5055652;28;20033;-75
2021/05/27 07:23:10;;;;;;;15.05;6.93;;;13.00;99.90;;;;;;5059438;28;20035;-74
2021/05/27 07:25:36;;;;;;;15.15;6.82;;;13.10;99.90;;;;;;5063130;28;20032;-75
2021/05/27 07:28:02;;;;;;;10.43;6.18;;;13.00;99.90;;;;;;5062779;28;20029;-83
2021/05/27 07:30:29;;;;;;;12.98;6.35;;;13.00;99.90;;;;;;5048820;28;20041;-80
2021/05/27 07:32:56;;;;;;;13.35;6.63;;;13.00;99.90;;;;;;5066117;28;20033;-77
2021/05/27 07:35:25;;;;;;;13.68;6.38;;;13.00;99.90;;;;;;5064076;28;20427;-82
2021/05/27 07:37:52;;;;;;;13.68;6.53;;;13.10;99.90;;;;;;5063059;28;20094;-81
2021/05/27 07:40:17;;;;;;;16.35;6.45;;;13.00;99.90;;;;;;5067582;28;20413;-77
2021/05/27 07:42:43;;;;;;;17.35;6.97;;;13.00;99.90;;;;;;5068586;28;20498;-80
2021/05/27 07:45:09;;;;;;;19.08;6.80;;;13.10;99.90;;;;;;5060025;28;20096;-76
2021/05/27 07:47:35;;;;;;;16.48;7.10;;;13.00;99.90;;;;;;5065804;28;20056;-79
2021/05/27 07:50:02;;;;;;;13.40;6.65;;;13.10;99.90;;;;;;5062846;28;20433;-76
2021/05/27 07:52:28;;;;;;;17.80;6.88;;;13.10;99.90;;;;;;5068439;28;20135;-83
2021/05/27 07:54:54;;;;;;;14.10;7.25;;;13.20;99.90;;;;;;5058095;28;20417;-74
2021/05/27 07:57:21;;;;;;;17.23;7.15;;;13.20;99.90;;;;;;5069140;28;20033;-81
2021/05/27 07:59:47;;;;;;;18.40;7.85;;;13.30;99.90;;;;;;5066211;28;20032;-83
2021/05/27 08:02:13;;;;;;;13.90;6.35;;;13.20;99.90;;;;;;5067026;28;20456;-84
2021/05/27 08:04:42;;;;;;;13.98;7.25;;;13.20;99.90;;;;;;5071223;28;20388;-81
2021/05/27 08:07:11;;;;;;;18.38;6.65;;;13.20;99.90;;;;;;5065782;28;20020;-81
2021/05/27 08:09:38;;;;;;;17.45;7.05;;;13.10;99.90;;;;;;5069705;28;20028;-75
2021/05/27 08:12:05;;;;;;;16.60;6.78;;;13.10;99.90;;;;;;5067353;28;20044;-82
2021/05/27 08:14:31;;;;;;;17.67;6.50;;;13.10;99.90;;;;;;5069308;28;20064;-83
2021/05/27 08:16:56;;;;;;;28.80;7.82;;;13.20;99.90;;;;;;5063954;28;20067;-79
2021/05/27 08:19:22;;;;;;;17.08;7.03;;;13.20;99.90;;;;;;5056475;28;20027;-75
2021/05/27 08:21:48;;;;;;;14.00;7.13;;;13.10;99.90;;;;;;5062640;28;20086;-78
2021/05/27 08:24:14;;;;;;;14.80;6.70;;;13.20;99.90;;;;;;5068161;28;20032;-79
2021/05/27 08:26:40;;;;;;;20.33;8.02;;;13.20;99.90;;;;;;5057263;28;20033;-77
2021/05/27 08:29:05;;;;;;;18.42;7.28;;;13.30;99.90;;;;;;5056659;28;20527;-82
2021/05/27 08:31:31;;;;;;;16.00;7.50;;;13.40;99.90;;;;;;5067334;28;20503;-82
2021/05/27 08:33:57;;;;;;;13.55;7.35;;;13.40;99.90;;;;;;5063500;28;20025;-78
2021/05/27 08:36:23;;;;;;;15.45;6.45;;;13.40;99.90;;;;;;5061724;28;20074;-82
2021/05/27 08:38:50;;;;;;;14.88;6.72;;;13.50;99.90;;;;;;5069839;28;20033;-83
2021/05/27 08:41:19;;;;;;;12.07;6.75;;;13.50;99.90;;;;;;5061741;28;20029;-81
2021/05/27 08:43:47;;;;;;;17.58;6.93;;;13.50;99.90;;;;;;5068753;28;20782;-81
2021/05/27 08:46:13;;;;;;;13.15;6.00;;;13.50;99.90;;;;;;5064649;28;20431;-82
2021/05/27 08:48:44;;;;;;;19.65;7.10;;;13.50;99.90;;;;;;5061195;28;20025;-84
2021/05/27 08:51:10;;;;;;;15.82;7.07;;;13.50;99.90;;;;;;5064399;28;20039;-84
2021/05/27 08:53:36;;;;;;;14.68;6.88;;;13.60;99.90;;;;;;5058799;28;20045;-77
2021/05/27 08:56:02;;;;;;;14.30;6.78;;;13.50;99.90;;;;;;5067682;28;20067;-82
2021/05/27 08:58:27;;;;;;;15.05;6.10;;;13.50;99.90;;;;;;5060992;28;20122;-83
2021/05/27 09:00:55;;;;;;;13.52;6.10;;;13.50;99.90;;;;;;5072411;28;20017;-82
2021/05/27 09:03:21;;;;;;;15.52;6.60;;;13.50;99.90;;;;;;5065266;28;20025;-84
2021/05/27 09:05:58;;;;;;;17.98;5.95;;;13.50;99.90;;;;;;5067445;28;20146;-80
2021/05/27 09:08:29;;;;;;;14.10;6.22;;;13.40;99.90;;;;;;5063958;28;20162;-78
2021/05/27 09:11:01;;;;;;;12.05;5.97;;;13.50;99.90;;;;;;5068648;28;20016;-75
2021/05/27 09:13:27;;;;;;;18.42;6.57;;;13.50;99.90;;;;;;5066074;28;20116;-77
2021/05/27 09:15:52;;;;;;;10.55;6.07;;;13.50;99.90;;;;;;5064031;28;20108;-82
2021/05/27 09:18:35;;;;;;;11.90;5.55;;;13.70;99.90;;;;;;5064113;28;20553;-84
2021/05/27 09:21:03;;;;;;;11.35;5.85;;;13.80;99.90;;;;;;5065963;28;20325;-76
2021/05/27 09:23:29;;;;;;;12.93;5.47;;;13.70;99.90;;;;;;5064714;28;20029;-83
2021/05/27 09:26:09;;;;;;;14.70;5.00;;;13.70;99.90;;;;;;5062923;28;20032;-76
2021/05/27 09:28:35;;;;;;;21.13;5.47;;;13.70;99.90;;;;;;5062142;28;20068;-80
2021/05/27 09:31:09;;;;;;;16.67;5.70;;;13.80;99.90;;;;;;5065188;28;20036;-78
2021/05/27 09:33:42;;;;;;;13.48;6.28;;;13.80;99.90;;;;;;5064916;28;20083;-82
2021/05/27 09:36:21;;;;;;;17.08;5.72;;;13.90;99.90;;;;;;5060734;28;20027;-76
2021/05/27 09:38:55;;;;;;;12.73;5.20;;;13.80;99.90;;;;;;5050371;28;20555;-78
2021/05/27 09:41:22;;;;;;;17.15;5.43;;;13.80;99.90;;;;;;5059570;28;20024;-84
2021/05/27 09:43:50;;;;;;;17.65;5.40;;;13.90;99.90;;;;;;5063179;28;20024;-77
2021/05/27 09:46:16;;;;;;;12.15;5.10;;;13.90;99.90;;;;;;5055808;28;20036;-78
2021/05/27 09:48:44;;;;;;;1826.07;210.13;;;13.90;99.90;;;;;;5058669;28;20025;-78
2021/05/27 09:51:10;;;;;;;147.32;19.17;;;14.00;99.90;;;;;;5065723;28;20116;-78
2021/05/27 09:53:36;;;;;;;13.98;4.93;;;14.00;99.90;;;;;;5055351;28;20553;-78
2021/05/27 09:56:05;;;;;;;16.33;5.18;;;14.10;99.90;;;;;;5057429;28;20104;-78
2021/05/27 09:58:31;;;;;;;18.08;4.70;;;14.20;99.90;;;;;;5059421;28;20036;-77
2021/05/27 10:00:57;;;;;;;21.23;5.78;;;14.30;99.90;;;;;;5052254;28;20029;-79
2021/05/27 10:03:25;;;;;;;16.33;5.30;;;14.20;99.90;;;;;;5061989;28;20021;-77
2021/05/27 10:05:51;;;;;;;10.80;5.05;;;14.20;99.90;;;;;;5055339;28;20013;-77
2021/05/27 10:08:19;;;;;;;14.65;4.50;;;14.30;99.90;;;;;;5056770;28;20032;-77
2021/05/27 10:10:46;;;;;;;12.00;5.53;;;14.50;99.90;;;;;;5060735;28;20028;-76
2021/05/27 10:13:14;;;;;;;16.27;5.22;;;14.70;99.90;;;;;;5060037;28;20381;-82
2021/05/27 10:15:43;;;;;;;15.13;5.78;;;14.70;99.90;;;;;;5057000;28;20028;-80
2021/05/27 10:18:19;;;;;;;14.45;5.90;;;14.60;99.90;;;;;;5059078;28;20060;-80
2021/05/27 10:20:45;;;;;;;16.65;5.80;;;14.70;99.90;;;;;;5059398;28;20033;-81
2021/05/27 10:23:10;;;;;;;11.93;5.28;;;14.70;99.90;;;;;;5063418;28;20056;-78
2021/05/27 10:25:37;;;;;;;11.20;4.72;;;14.80;99.90;;;;;;5058419;28;20055;-79
2021/05/27 10:28:09;;;;;;;8.57;5.53;;;14.80;99.90;;;;;;5066984;28;20021;-78
2021/05/27 10:30:38;;;;;;;13.55;5.97;;;14.80;99.90;;;;;;5068280;28;20040;-82
2021/05/27 10:33:06;;;;;;;12.52;5.78;;;14.80;99.90;;;;;;5067277;28;20032;-81
2021/05/27 10:35:54;;;;;;;8.93;5.35;;;14.70;99.90;;;;;;5059480;28;20016;-79
2021/05/27 10:38:42;;;;;;;12.93;5.65;;;14.70;99.90;;;;;;5067946;28;20072;-78
2021/05/27 10:41:19;;;;;;;10.23;5.40;;;14.70;99.90;;;;;;5051700;28;20123;-79
2021/05/27 10:44:01;;;;;;;12.05;5.22;;;14.80;99.90;;;;;;5056662;28;20032;-77
2021/05/27 10:46:50;;;;;;;18.75;5.75;;;14.70;99.90;;;;;;5056690;28;20032;-75
2021/05/27 10:49:44;;;;;;;11.20;5.90;;;14.70;99.90;;;;;;5062862;28;20025;-76
2021/05/27 10:52:25;;;;;;;12.85;5.22;;;14.60;99.90;;;;;;5059159;28;20505;-75
2021/05/27 10:54:50;;;;;;;20.15;6.05;;;14.70;99.90;;;;;;5059496;28;20024;-74
2021/05/27 10:57:41;;;;;;;19.85;6.13;;;14.80;99.90;;;;;;5058764;28;20412;-74
2021/05/27 11:00:32;;;;;;;12.98;6.00;;;15.00;99.90;;;;;;5060201;28;20037;-76
2021/05/27 11:03:40;;;;;;;19.55;5.30;;;15.00;99.90;;;;;;5051817;28;20021;-76
2021/05/27 11:06:28;;;;;;;13.32;4.68;;;15.00;99.90;;;;;;5058408;28;20104;-76
2021/05/27 11:09:19;;;;;;;10.63;5.22;;;15.00;99.90;;;;;;5070213;28;20392;-75
2021/05/27 11:12:02;;;;;;;11.75;4.18;;;15.10;99.90;;;;;;5063995;28;20037;-78
2021/05/27 11:17:24;;;;;;;7.05;4.20;;;15.30;99.90;;;;;;5058023;28;20029;-76
2021/05/27 11:20:03;;;;;;;11.43;4.05;;;15.30;99.90;;;;;;5066391;28;20127;-75
2021/05/27 11:25:15;;;;;;;11.45;4.50;;;15.40;99.90;;;;;;5067618;28;20032;-73
2021/05/27 11:28:07;;;;;;;9.02;4.30;;;15.50;99.90;;;;;;5056449;28;20040;-76
2021/05/27 11:30:36;;;;;;;10.20;3.97;;;15.50;99.90;;;;;;5051453;28;20032;-75
2021/05/27 11:33:12;;;;;;;9.07;4.47;;;15.50;99.90;;;;;;5062929;28;20040;-77
2021/05/27 11:35:38;;;;;;;14.30;4.90;;;15.40;99.90;;;;;;5065356;28;20059;-75
2021/05/27 11:38:24;;;;;;;13.48;4.93;;;15.30;99.90;;;;;;5060316;28;20057;-73
2021/05/27 11:40:53;;;;;;;12.07;4.63;;;15.20;99.90;;;;;;5057100;28;20025;-77
2021/05/27 11:43:29;;;;;;;11.25;4.53;;;15.10;99.90;;;;;;5069806;28;20626;-78
2021/05/27 11:45:57;;;;;;;8.50;4.47;;;15.00;99.90;;;;;;5051306;28;20017;-81
2021/05/27 11:48:32;;;;;;;12.55;4.95;;;15.00;99.90;;;;;;5057459;28;20065;-74
2021/05/27 11:51:15;;;;;;;10.02;4.57;;;15.10;99.90;;;;;;5056125;28;20025;-81
2021/05/27 11:53:48;;;;;;;9.63;4.53;;;15.20;99.90;;;;;;5066462;28;20028;-79
2021/05/27 11:56:27;;;;;;;10.93;5.13;;;15.20;99.90;;;;;;5064868;28;20043;-76
2021/05/27 11:58:53;;;;;;;6.65;4.72;;;15.20;99.90;;;;;;5061173;28;20032;-78
2021/05/27 12:01:27;;;;;;;8.90;5.13;;;15.20;99.90;;;;;;5058914;28;20027;-80
2021/05/27 12:03:59;;;;;;;7.75;4.50;;;15.10;99.90;;;;;;5060738;28;20031;-76
2021/05/27 12:06:25;;;;;;;12.77;5.10;;;15.40;99.90;;;;;;5056909;28;20039;-74
2021/05/27 12:08:51;;;;;;;15.32;4.80;;;15.60;99.90;;;;;;5059709;28;20274;-81
2021/05/27 12:11:30;;;;;;;12.88;5.43;;;15.50;99.90;;;;;;5051625;28;20063;-81
2021/05/27 12:14:00;;;;;;;11.23;4.85;;;15.40;99.90;;;;;;5053804;28;20025;-83
2021/05/27 12:16:31;;;;;;;11.27;4.40;;;15.20;99.90;;;;;;5057240;28;20024;-77
2021/05/27 12:19:08;;;;;;;8.07;4.50;;;15.10;99.90;;;;;;5053381;28;20036;-81
2021/05/27 12:21:34;;;;;;;8.57;4.53;;;15.20;99.90;;;;;;5058133;28;20115;-75
2021/05/27 12:24:02;;;;;;;12.48;5.95;;;15.10;99.90;;;;;;5061053;28;20021;-78
2021/05/27 12:26:28;;;;;;;11.43;5.05;;;15.00;99.90;;;;;;5053697;28;20063;-78
2021/05/27 12:28:54;;;;;;;13.88;5.03;;;15.10;99.90;;;;;;5060807;28;20482;-81
2021/05/27 12:31:21;;;;;;;12.73;5.55;;;15.00;99.90;;;;;;5057329;28;20047;-81
2021/05/27 12:33:47;;;;;;;10.52;5.63;;;15.00;99.90;;;;;;5056915;28;20028;-78
2021/05/27 12:36:13;;;;;;;15.63;6.10;;;14.90;99.90;;;;;;5058279;28;20025;-76
2021/05/27 12:38:44;;;;;;;12.45;5.80;;;15.00;99.90;;;;;;5050877;28;20032;-81
2021/05/27 12:41:11;;;;;;;11.55;5.20;;;15.10;99.90;;;;;;5059778;28;20036;-76
2021/05/27 12:43:47;;;;;;;14.40;6.40;;;15.10;99.90;;;;;;5067209;28;20017;-75
2021/05/27 12:46:13;;;;;;;18.40;6.38;;;15.00;99.90;;;;;;5065837;28;20025;-82
2021/05/27 12:48:51;;;;;;;18.65;6.55;;;15.00;99.90;;;;;;5057190;28;20028;-82
2021/05/27 12:51:19;;;;;;;16.50;6.72;;;14.90;99.90;;;;;;5060373;28;20132;-81
2021/05/27 12:53:47;;;;;;;14.68;6.25;;;14.90;99.90;;;;;;5058683;28;20491;-78
2021/05/27 12:56:23;;;;;;;15.43;6.20;;;15.00;99.90;;;;;;5055593;28;20079;-78
2021/05/27 12:59:05;;;;;;;16.52;6.57;;;15.10;99.90;;;;;;5062967;28;20024;-72
2021/05/27 13:01:37;;;;;;;19.58;7.30;;;15.20;99.90;;;;;;5058658;28;20094;-75
2021/05/27 13:04:24;;;;;;;14.30;6.35;;;15.20;99.90;;;;;;5057067;28;20059;-77